createdAt,value
2018-12-30T00:00:46.809Z,1011.38
2018-12-30T00:01:46.778Z,1011.36
2018-12-30T00:02:46.884Z,1011.43
2018-12-30T00:03:46.765Z,1011.36
2018-12-30T00:04:46.829Z,1011.34
2018-12-30T00:05:46.745Z,1011.37
2018-12-30T00:06:46.777Z,1011.33
2018-12-30T00:07:46.711Z,1011.33
2018-12-30T00:08:46.873Z,1011.33
2018-12-30T00:09:46.717Z,1011.32
2018-12-30T00:10:46.690Z,1011.32
2018-12-30T00:11:46.675Z,1011.33
2018-12-30T00:12:46.662Z,1011.30
2018-12-30T00:13:46.651Z,1011.30
2018-12-30T00:14:46.757Z,1011.29
2018-12-30T00:15:46.626Z,1011.32
2018-12-30T00:16:46.623Z,1011.26
2018-12-30T00:17:46.623Z,1011.19
2018-12-30T00:18:46.593Z,1011.30
2018-12-30T00:19:46.629Z,1011.22
2018-12-30T00:20:46.703Z,1011.20
2018-12-30T00:21:46.604Z,1011.21
2018-12-30T00:22:46.561Z,1011.20
2018-12-30T00:23:46.561Z,1011.17
2018-12-30T00:24:46.530Z,1011.19
2018-12-30T00:25:46.518Z,1011.19
2018-12-30T00:26:46.638Z,1011.17
2018-12-30T00:27:46.500Z,1011.15
2018-12-30T00:28:46.487Z,1011.16
2018-12-30T00:29:46.572Z,1011.14
2018-12-30T00:30:46.469Z,1011.17
2018-12-30T00:31:46.460Z,1011.09
2018-12-30T00:32:47.188Z,1011.15
2018-12-30T00:33:46.435Z,1011.16
2018-12-30T00:34:46.423Z,1011.12
2018-12-30T00:35:46.773Z,1011.13
2018-12-30T00:36:46.458Z,1011.08
2018-12-30T00:37:46.385Z,1011.11
2018-12-30T00:38:46.678Z,1011.08
2018-12-30T00:39:46.536Z,1011.06
2018-12-30T00:40:46.477Z,1011.09
2018-12-30T00:41:46.431Z,1011.10
2018-12-30T00:42:46.568Z,1011.06
2018-12-30T00:43:46.532Z,1011.02
2018-12-30T00:44:46.928Z,1011.02
2018-12-30T00:45:46.364Z,1011.10
2018-12-30T00:46:46.365Z,1011.05
2018-12-30T00:47:46.417Z,1011.08
2018-12-30T00:48:46.386Z,1011.06
2018-12-30T00:49:46.301Z,1011.08
2018-12-30T00:50:46.664Z,1011.08
2018-12-30T00:51:46.258Z,1011.08
2018-12-30T00:52:46.358Z,1011.04
2018-12-30T00:53:46.296Z,1011.04
2018-12-30T00:54:46.199Z,1011.08
2018-12-30T00:55:46.218Z,1011.09
2018-12-30T00:56:46.430Z,1011.07
2018-12-30T00:57:46.210Z,1011.09
2018-12-30T00:58:46.159Z,1011.13
2018-12-30T00:59:46.153Z,1011.07
2018-12-30T01:00:46.164Z,1011.05
2018-12-30T01:01:46.139Z,1011.06
2018-12-30T01:02:46.252Z,1011.12
2018-12-30T01:03:47.128Z,1011.13
2018-12-30T01:04:46.103Z,1011.15
2018-12-30T01:05:46.084Z,1011.04
2018-12-30T01:06:46.076Z,1011.06
2018-12-30T01:07:46.076Z,1011.07
2018-12-30T01:08:46.241Z,1011.01
2018-12-30T01:09:46.044Z,1010.99
2018-12-30T01:10:46.149Z,1011.02
2018-12-30T01:11:46.015Z,1011.04
2018-12-30T01:12:46.038Z,1011.16
2018-12-30T01:13:46.018Z,1011.06
2018-12-30T01:14:46.232Z,1011.08
2018-12-30T01:15:45.967Z,1011.07
2018-12-30T01:16:45.964Z,1011.06
2018-12-30T01:17:45.958Z,1011.09
2018-12-30T01:18:45.962Z,1011.08
2018-12-30T01:19:45.957Z,1011.08
2018-12-30T01:20:46.278Z,1011.08
2018-12-30T01:21:45.958Z,1011.04
2018-12-30T01:22:45.944Z,1011.02
2018-12-30T01:23:45.929Z,1011.06
2018-12-30T01:24:45.879Z,1011.12
2018-12-30T01:25:45.888Z,1011.07
2018-12-30T01:26:46.173Z,1011.04
2018-12-30T01:27:45.922Z,1011.12
2018-12-30T01:28:45.851Z,1011.13
2018-12-30T01:29:45.850Z,1011.09
2018-12-30T01:30:45.892Z,1011.09
2018-12-30T01:31:45.822Z,1011.10
2018-12-30T01:32:46.080Z,1011.14
2018-12-30T01:33:48.501Z,1011.12
2018-12-30T01:34:45.760Z,1011.13
2018-12-30T01:35:45.756Z,1011.10
2018-12-30T01:36:45.738Z,1011.10
2018-12-30T01:37:45.728Z,1011.14
2018-12-30T01:38:45.843Z,1011.12
2018-12-30T01:39:45.714Z,1011.11
2018-12-30T01:40:45.693Z,1011.10
2018-12-30T01:41:45.694Z,1011.15
2018-12-30T01:42:45.765Z,1011.12
2018-12-30T01:43:45.930Z,1011.18
2018-12-30T01:44:45.828Z,1011.16
2018-12-30T01:45:45.638Z,1011.15
2018-12-30T01:46:45.687Z,1011.14
2018-12-30T01:47:45.628Z,1011.13
2018-12-30T01:48:45.611Z,1011.12
2018-12-30T01:49:45.599Z,1011.16
2018-12-30T01:50:46.780Z,1011.15
2018-12-30T01:51:45.577Z,1011.12
2018-12-30T01:52:45.564Z,1011.20
2018-12-30T01:53:45.574Z,1011.17
2018-12-30T01:54:45.553Z,1011.22
2018-12-30T01:55:45.540Z,1011.24
2018-12-30T01:56:46.278Z,1011.21
2018-12-30T01:57:45.515Z,1011.24
2018-12-30T01:58:45.503Z,1011.27
2018-12-30T01:59:45.541Z,1011.24
2018-12-30T02:00:45.477Z,1011.21
2018-12-30T02:01:45.468Z,1011.17
2018-12-30T02:02:45.546Z,1011.23
2018-12-30T02:03:45.452Z,1011.25
2018-12-30T02:04:45.442Z,1011.21
2018-12-30T02:05:45.430Z,1011.21
2018-12-30T02:06:45.415Z,1011.28
2018-12-30T02:07:45.398Z,1011.23
2018-12-30T02:08:45.587Z,1011.25
2018-12-30T02:09:45.392Z,1011.19
2018-12-30T02:10:45.382Z,1011.24
2018-12-30T02:11:45.414Z,1011.24
2018-12-30T02:12:45.347Z,1011.27
2018-12-30T02:13:45.336Z,1011.27
2018-12-30T02:14:45.529Z,1011.21
2018-12-30T02:15:45.322Z,1011.25
2018-12-30T02:16:45.367Z,1011.23
2018-12-30T02:17:45.307Z,1011.24
2018-12-30T02:18:45.286Z,1011.22
2018-12-30T02:19:45.264Z,1011.20
2018-12-30T02:20:45.729Z,1011.26
2018-12-30T02:21:45.252Z,1011.22
2018-12-30T02:22:45.239Z,1011.22
2018-12-30T02:23:45.220Z,1011.24
2018-12-30T02:24:45.219Z,1011.21
2018-12-30T02:25:45.210Z,1011.24
2018-12-30T02:26:45.310Z,1011.19
2018-12-30T02:27:45.180Z,1011.20
2018-12-30T02:28:45.313Z,1011.18
2018-12-30T02:29:45.160Z,1011.22
2018-12-30T02:30:45.156Z,1011.24
2018-12-30T02:31:45.161Z,1011.16
2018-12-30T02:32:45.732Z,1011.21
2018-12-30T02:33:45.217Z,1011.18
2018-12-30T02:34:45.105Z,1011.21
2018-12-30T02:35:45.107Z,1011.18
2018-12-30T02:36:45.100Z,1011.14
2018-12-30T02:37:45.114Z,1011.19
2018-12-30T02:38:45.159Z,1011.20
2018-12-30T02:39:45.064Z,1011.20
2018-12-30T02:40:45.071Z,1011.17
2018-12-30T02:41:45.030Z,1011.21
2018-12-30T02:42:45.020Z,1011.15
2018-12-30T02:43:45.013Z,1011.20
2018-12-30T02:44:45.143Z,1011.17
2018-12-30T02:45:44.992Z,1011.14
2018-12-30T02:46:44.972Z,1011.20
2018-12-30T02:47:44.962Z,1011.19
2018-12-30T02:48:44.971Z,1011.19
2018-12-30T02:49:44.957Z,1011.18
2018-12-30T02:50:45.227Z,1011.21
2018-12-30T02:51:50.674Z,1011.17
2018-12-30T02:52:45.967Z,1011.18
2018-12-30T02:53:44.907Z,1011.17
2018-12-30T02:54:44.906Z,1011.15
2018-12-30T02:55:44.880Z,1011.17
2018-12-30T02:56:45.091Z,1011.18
2018-12-30T02:57:44.856Z,1011.17
2018-12-30T02:58:44.844Z,1011.14
2018-12-30T02:59:44.974Z,1011.09
2018-12-30T03:00:44.838Z,1011.11
2018-12-30T03:01:44.808Z,1011.10
2018-12-30T03:02:44.893Z,1011.06
2018-12-30T03:03:44.796Z,1011.08
2018-12-30T03:04:44.780Z,1011.11
2018-12-30T03:05:44.821Z,1011.10
2018-12-30T03:06:44.762Z,1011.11
2018-12-30T03:07:44.748Z,1011.09
2018-12-30T03:08:44.844Z,1011.09
2018-12-30T03:09:44.714Z,1011.11
2018-12-30T03:10:44.714Z,1011.08
2018-12-30T03:11:44.716Z,1011.18
2018-12-30T03:12:44.706Z,1011.10
2018-12-30T03:13:44.689Z,1011.10
2018-12-30T03:14:44.782Z,1011.09
2018-12-30T03:15:44.655Z,1011.09
2018-12-30T03:16:44.655Z,1011.09
2018-12-30T03:17:44.641Z,1011.14
2018-12-30T03:18:44.639Z,1011.15
2018-12-30T03:19:44.613Z,1011.09
2018-12-30T03:20:44.736Z,1011.10
2018-12-30T03:21:44.586Z,1011.13
2018-12-30T03:22:44.660Z,1011.16
2018-12-30T03:23:44.581Z,1011.09
2018-12-30T03:24:44.581Z,1011.15
2018-12-30T03:25:44.546Z,1011.14
2018-12-30T03:26:44.792Z,1011.13
2018-12-30T03:27:44.528Z,1011.13
2018-12-30T03:28:44.525Z,1011.13
2018-12-30T03:29:44.526Z,1011.14
2018-12-30T03:30:44.497Z,1011.17
2018-12-30T03:31:44.491Z,1011.14
2018-12-30T03:32:44.557Z,1011.17
2018-12-30T03:33:44.464Z,1011.13
2018-12-30T03:34:44.451Z,1011.13
2018-12-30T03:35:44.449Z,1011.16
2018-12-30T03:36:44.424Z,1011.15
2018-12-30T03:37:44.418Z,1011.17
2018-12-30T03:38:44.599Z,1011.15
2018-12-30T03:39:44.486Z,1011.18
2018-12-30T03:40:44.394Z,1011.13
2018-12-30T03:41:44.387Z,1011.19
2018-12-30T03:42:44.370Z,1011.19
2018-12-30T03:43:45.573Z,1011.14
2018-12-30T03:44:44.445Z,1011.15
2018-12-30T03:45:44.341Z,1011.19
2018-12-30T03:46:44.542Z,1011.19
2018-12-30T03:47:44.313Z,1011.20
2018-12-30T03:48:44.301Z,1011.18
2018-12-30T03:49:44.293Z,1011.23
2018-12-30T03:50:44.382Z,1011.21
2018-12-30T03:51:44.279Z,1011.24
2018-12-30T03:52:44.301Z,1011.22
2018-12-30T03:53:44.249Z,1011.23
2018-12-30T03:54:44.293Z,1011.21
2018-12-30T03:55:44.229Z,1011.23
2018-12-30T03:56:44.444Z,1011.21
2018-12-30T03:57:44.214Z,1011.21
2018-12-30T03:58:44.217Z,1011.27
2018-12-30T03:59:44.177Z,1011.32
2018-12-30T04:00:44.169Z,1011.31
2018-12-30T04:01:44.172Z,1011.30
2018-12-30T04:02:44.291Z,1011.29
2018-12-30T04:03:44.149Z,1011.29
2018-12-30T04:04:44.893Z,1011.29
2018-12-30T04:05:44.125Z,1011.28
2018-12-30T04:06:44.108Z,1011.31
2018-12-30T04:07:44.106Z,1011.28
2018-12-30T04:08:44.234Z,1011.27
2018-12-30T04:09:44.071Z,1011.27
2018-12-30T04:10:44.059Z,1011.37
2018-12-30T04:11:44.125Z,1011.31
2018-12-30T04:12:44.049Z,1011.36
2018-12-30T04:13:44.038Z,1011.39
2018-12-30T04:14:44.158Z,1011.37
2018-12-30T04:15:44.037Z,1011.41
2018-12-30T04:16:44.002Z,1011.40
2018-12-30T04:17:43.986Z,1011.40
2018-12-30T04:18:43.981Z,1011.42
2018-12-30T04:19:43.982Z,1011.47
2018-12-30T04:20:44.216Z,1011.45
2018-12-30T04:21:43.965Z,1011.46
2018-12-30T04:22:43.951Z,1011.47
2018-12-30T04:23:43.947Z,1011.52
2018-12-30T04:24:43.954Z,1011.44
2018-12-30T04:25:43.959Z,1011.46
2018-12-30T04:26:44.215Z,1011.52
2018-12-30T04:27:43.878Z,1011.52
2018-12-30T04:28:43.972Z,1011.51
2018-12-30T04:29:43.861Z,1011.54
2018-12-30T04:30:43.850Z,1011.57
2018-12-30T04:31:43.852Z,1011.49
2018-12-30T04:32:44.257Z,1011.52
2018-12-30T04:33:43.815Z,1011.52
2018-12-30T04:34:43.804Z,1011.60
2018-12-30T04:35:43.801Z,1011.53
2018-12-30T04:36:43.781Z,1011.58
2018-12-30T04:37:43.771Z,1011.66
2018-12-30T04:38:43.940Z,1011.65
2018-12-30T04:39:43.744Z,1011.63
2018-12-30T04:40:43.744Z,1011.64
2018-12-30T04:41:43.736Z,1011.60
2018-12-30T04:42:43.714Z,1011.67
2018-12-30T04:43:43.710Z,1011.69
2018-12-30T04:44:43.814Z,1011.75
2018-12-30T04:45:43.784Z,1011.74
2018-12-30T04:46:43.678Z,1011.75
2018-12-30T04:47:43.665Z,1011.78
2018-12-30T04:48:43.664Z,1011.78
2018-12-30T04:49:43.646Z,1011.73
2018-12-30T04:50:43.741Z,1011.81
2018-12-30T04:51:43.629Z,1011.79
2018-12-30T04:52:43.612Z,1011.83
2018-12-30T04:53:43.985Z,1011.88
2018-12-30T04:54:43.580Z,1011.85
2018-12-30T04:55:43.582Z,1011.92
2018-12-30T04:56:43.741Z,1012.00
2018-12-30T04:57:43.560Z,1012.02
2018-12-30T04:58:43.547Z,1012.00
2018-12-30T04:59:43.533Z,1011.99
2018-12-30T05:00:43.525Z,1012.00
2018-12-30T05:01:43.533Z,1012.00
2018-12-30T05:02:43.754Z,1012.06
2018-12-30T05:03:43.485Z,1012.06
2018-12-30T05:04:43.503Z,1012.13
2018-12-30T05:05:43.477Z,1012.06
2018-12-30T05:06:43.458Z,1012.12
2018-12-30T05:07:43.444Z,1012.13
2018-12-30T05:08:43.678Z,1012.15
2018-12-30T05:09:43.426Z,1012.20
2018-12-30T05:10:43.412Z,1012.30
2018-12-30T05:11:43.405Z,1012.28
2018-12-30T05:12:43.390Z,1012.27
2018-12-30T05:13:43.379Z,1012.26
2018-12-30T05:14:43.676Z,1012.28
2018-12-30T05:15:43.355Z,1012.27
2018-12-30T05:16:43.352Z,1012.34
2018-12-30T05:17:43.329Z,1012.31
2018-12-30T05:18:43.318Z,1012.42
2018-12-30T05:19:43.336Z,1012.42
2018-12-30T05:20:43.492Z,1012.46
2018-12-30T05:21:43.312Z,1012.51
2018-12-30T05:22:43.285Z,1012.47
2018-12-30T05:23:43.263Z,1012.55
2018-12-30T05:24:43.255Z,1012.51
2018-12-30T05:25:43.356Z,1012.62
2018-12-30T05:26:43.378Z,1012.61
2018-12-30T05:27:43.224Z,1012.64
2018-12-30T05:28:43.230Z,1012.70
2018-12-30T05:29:43.221Z,1012.71
2018-12-30T05:30:43.187Z,1012.64
2018-12-30T05:31:43.176Z,1012.68
2018-12-30T05:32:43.270Z,1012.73
2018-12-30T05:33:43.162Z,1012.70
2018-12-30T05:34:43.201Z,1012.77
2018-12-30T05:35:43.129Z,1012.71
2018-12-30T05:36:43.124Z,1012.78
2018-12-30T05:37:43.122Z,1012.87
2018-12-30T05:38:43.273Z,1012.78
2018-12-30T05:39:43.094Z,1012.83
2018-12-30T05:40:43.076Z,1012.82
2018-12-30T05:41:43.062Z,1012.86
2018-12-30T05:42:43.057Z,1012.81
2018-12-30T05:43:43.041Z,1012.97
2018-12-30T05:44:43.174Z,1012.92
2018-12-30T05:45:43.045Z,1012.95
2018-12-30T05:46:43.009Z,1012.93
2018-12-30T05:47:43.029Z,1012.96
2018-12-30T05:48:42.992Z,1013.03
2018-12-30T05:49:42.977Z,1013.02
2018-12-30T05:50:43.221Z,1013.10
2018-12-30T05:51:43.041Z,1013.16
2018-12-30T05:52:42.953Z,1013.08
2018-12-30T05:53:42.939Z,1013.01
2018-12-30T05:54:42.929Z,1013.16
2018-12-30T05:55:42.908Z,1013.20
2018-12-30T05:56:43.141Z,1013.18
2018-12-30T05:57:43.948Z,1013.20
2018-12-30T05:58:42.914Z,1013.30
2018-12-30T05:59:42.868Z,1013.32
2018-12-30T06:00:42.876Z,1013.33
2018-12-30T06:01:42.845Z,1013.41
2018-12-30T06:02:42.952Z,1013.45
2018-12-30T06:03:42.822Z,1013.55
2018-12-30T06:04:42.818Z,1013.53
2018-12-30T06:05:42.804Z,1013.45
2018-12-30T06:06:42.787Z,1013.61
2018-12-30T06:07:42.785Z,1013.61
2018-12-30T06:08:42.953Z,1013.64
2018-12-30T06:09:42.756Z,1013.65
2018-12-30T06:10:42.794Z,1013.68
2018-12-30T06:11:42.729Z,1013.68
2018-12-30T06:12:42.720Z,1013.69
2018-12-30T06:13:42.728Z,1013.81
2018-12-30T06:14:42.868Z,1013.94
2018-12-30T06:15:42.704Z,1013.88
2018-12-30T06:16:42.746Z,1013.97
2018-12-30T06:17:42.671Z,1013.98
2018-12-30T06:18:43.093Z,1013.96
2018-12-30T06:19:42.651Z,1014.03
2018-12-30T06:20:42.783Z,1014.08
2018-12-30T06:21:42.630Z,1014.07
2018-12-30T06:22:49.345Z,1014.06
2018-12-30T06:23:43.608Z,1014.10
2018-12-30T06:24:42.604Z,1014.19
2018-12-30T06:25:42.679Z,1014.16
2018-12-30T06:26:42.713Z,1014.26
2018-12-30T06:27:42.598Z,1014.21
2018-12-30T06:28:42.571Z,1014.27
2018-12-30T06:29:42.540Z,1014.27
2018-12-30T06:30:42.533Z,1014.36
2018-12-30T06:31:42.535Z,1014.28
2018-12-30T06:32:42.650Z,1014.38
2018-12-30T06:33:42.561Z,1014.38
2018-12-30T06:34:43.479Z,1014.39
2018-12-30T06:35:42.507Z,1014.39
2018-12-30T06:36:42.486Z,1014.36
2018-12-30T06:37:42.452Z,1014.47
2018-12-30T06:38:42.636Z,1014.43
2018-12-30T06:39:42.438Z,1014.54
2018-12-30T06:40:42.453Z,1014.50
2018-12-30T06:41:42.413Z,1014.61
2018-12-30T06:42:42.414Z,1014.52
2018-12-30T06:43:42.392Z,1014.59
2018-12-30T06:44:42.732Z,1014.73
2018-12-30T06:45:42.364Z,1014.73
2018-12-30T06:46:42.364Z,1014.76
2018-12-30T06:47:42.361Z,1014.84
2018-12-30T06:48:42.333Z,1014.77
2018-12-30T06:49:42.334Z,1014.82
2018-12-30T06:50:42.456Z,1014.86
2018-12-30T06:51:42.300Z,1014.87
2018-12-30T06:52:42.289Z,1014.93
2018-12-30T06:53:42.296Z,1014.90
2018-12-30T06:54:42.271Z,1014.96
2018-12-30T06:55:42.277Z,1015.00
2018-12-30T06:56:42.440Z,1014.98
2018-12-30T06:57:42.296Z,1014.95
2018-12-30T06:58:42.232Z,1015.06
2018-12-30T06:59:42.246Z,1014.99
2018-12-30T07:00:42.228Z,1015.10
2018-12-30T07:01:42.204Z,1015.07
2018-12-30T07:02:42.328Z,1015.03
2018-12-30T07:03:42.170Z,1015.04
2018-12-30T07:04:42.165Z,1015.08
2018-12-30T07:05:42.158Z,1015.12
2018-12-30T07:06:42.165Z,1015.17
2018-12-30T07:07:42.139Z,1015.18
2018-12-30T07:08:42.270Z,1015.16
2018-12-30T07:09:42.132Z,1015.16
2018-12-30T07:10:42.103Z,1015.19
2018-12-30T07:11:42.085Z,1015.23
2018-12-30T07:12:42.084Z,1015.25
2018-12-30T07:13:42.090Z,1015.36
2018-12-30T07:14:42.297Z,1015.29
2018-12-30T07:15:42.045Z,1015.33
2018-12-30T07:16:42.052Z,1015.25
2018-12-30T07:17:42.024Z,1015.39
2018-12-30T07:18:42.024Z,1015.38
2018-12-30T07:19:42.056Z,1015.41
2018-12-30T07:20:42.399Z,1015.46
2018-12-30T07:21:41.978Z,1015.45
2018-12-30T07:22:41.975Z,1015.45
2018-12-30T07:23:41.959Z,1015.52
2018-12-30T07:24:41.951Z,1015.54
2018-12-30T07:25:41.953Z,1015.57
2018-12-30T07:26:42.160Z,1015.63
2018-12-30T07:27:41.943Z,1015.73
2018-12-30T07:28:41.940Z,1015.71
2018-12-30T07:29:41.954Z,1015.73
2018-12-30T07:30:41.933Z,1015.72
2018-12-30T07:31:42.070Z,1015.70
2018-12-30T07:32:42.147Z,1015.72
2018-12-30T07:33:41.852Z,1015.65
2018-12-30T07:34:41.835Z,1015.79
2018-12-30T07:35:41.823Z,1015.92
2018-12-30T07:36:41.831Z,1015.88
2018-12-30T07:37:41.824Z,1015.95
2018-12-30T07:38:41.993Z,1015.89
2018-12-30T07:39:41.783Z,1016.01
2018-12-30T07:40:41.773Z,1015.91
2018-12-30T07:41:41.760Z,1015.97
2018-12-30T07:42:41.768Z,1015.94
2018-12-30T07:43:41.743Z,1016.06
2018-12-30T07:44:41.929Z,1016.11
2018-12-30T07:45:41.731Z,1016.15
2018-12-30T07:46:41.731Z,1016.21
2018-12-30T07:47:41.695Z,1016.37
2018-12-30T07:48:41.719Z,1016.30
2018-12-30T07:49:41.677Z,1016.31
2018-12-30T07:50:41.983Z,1016.27
2018-12-30T07:51:41.656Z,1016.39
2018-12-30T07:52:41.852Z,1016.43
2018-12-30T07:53:41.636Z,1016.45
2018-12-30T07:54:41.630Z,1016.47
2018-12-30T07:55:41.608Z,1016.46
2018-12-30T07:56:41.722Z,1016.39
2018-12-30T07:57:41.599Z,1016.54
2018-12-30T07:58:41.600Z,1016.47
2018-12-30T07:59:41.571Z,1016.53
2018-12-30T08:00:41.571Z,1016.66
2018-12-30T08:01:41.549Z,1016.54
2018-12-30T08:02:41.679Z,1016.68
2018-12-30T08:03:41.595Z,1016.71
2018-12-30T08:04:41.532Z,1016.74
2018-12-30T08:05:41.511Z,1016.78
2018-12-30T08:06:41.495Z,1016.74
2018-12-30T08:07:41.496Z,1016.83
2018-12-30T08:08:41.693Z,1016.84
2018-12-30T08:09:41.461Z,1016.81
2018-12-30T08:10:41.448Z,1016.76
2018-12-30T08:11:42.341Z,1016.80
2018-12-30T08:12:41.533Z,1016.87
2018-12-30T08:13:41.416Z,1016.93
2018-12-30T08:14:41.608Z,1016.91
2018-12-30T08:15:41.392Z,1016.87
2018-12-30T08:16:43.094Z,1016.93
2018-12-30T08:17:41.387Z,1016.92
2018-12-30T08:18:41.367Z,1017.03
2018-12-30T08:19:41.354Z,1017.00
2018-12-30T08:20:41.608Z,1017.01
2018-12-30T08:21:41.356Z,1016.99
2018-12-30T08:22:41.315Z,1016.95
2018-12-30T08:23:41.324Z,1016.95
2018-12-30T08:24:41.305Z,1016.98
2018-12-30T08:25:41.301Z,1017.08
2018-12-30T08:26:41.399Z,1016.90
2018-12-30T08:27:41.260Z,1016.97
2018-12-30T08:28:41.260Z,1016.97
2018-12-30T08:29:41.257Z,1017.01
2018-12-30T08:30:41.236Z,1017.11
2018-12-30T08:31:41.294Z,1017.14
2018-12-30T08:32:41.972Z,1017.14
2018-12-30T08:33:41.203Z,1017.23
2018-12-30T08:34:41.199Z,1017.20
2018-12-30T08:35:41.186Z,1017.21
2018-12-30T08:36:41.169Z,1017.23
2018-12-30T08:37:41.243Z,1017.23
2018-12-30T08:38:41.289Z,1017.20
2018-12-30T08:39:41.135Z,1017.22
2018-12-30T08:40:41.133Z,1017.23
2018-12-30T08:41:41.135Z,1017.18
2018-12-30T08:42:41.112Z,1017.12
2018-12-30T08:43:41.090Z,1017.15
2018-12-30T08:44:41.193Z,1017.14
2018-12-30T08:45:41.065Z,1017.17
2018-12-30T08:46:41.063Z,1017.24
2018-12-30T08:47:41.064Z,1017.17
2018-12-30T08:48:41.048Z,1017.25
2018-12-30T08:49:41.032Z,1017.26
2018-12-30T08:50:41.136Z,1017.24
2018-12-30T08:51:41.009Z,1017.27
2018-12-30T08:52:41.017Z,1017.33
2018-12-30T08:53:40.998Z,1017.29
2018-12-30T08:54:41.067Z,1017.29
2018-12-30T08:55:40.958Z,1017.37
2018-12-30T08:56:41.648Z,1017.36
2018-12-30T08:57:40.993Z,1017.37
2018-12-30T08:58:40.937Z,1017.35
2018-12-30T08:59:40.944Z,1017.41
2018-12-30T09:00:40.908Z,1017.47
2018-12-30T09:01:40.894Z,1017.50
2018-12-30T09:02:41.090Z,1017.51
2018-12-30T09:03:40.884Z,1017.53
2018-12-30T09:04:40.881Z,1017.56
2018-12-30T09:05:40.851Z,1017.53
2018-12-30T09:06:40.848Z,1017.56
2018-12-30T09:07:40.843Z,1017.55
2018-12-30T09:08:41.352Z,1017.59
2018-12-30T09:09:40.832Z,1017.60
2018-12-30T09:10:40.803Z,1017.59
2018-12-30T09:11:40.787Z,1017.55
2018-12-30T09:12:40.768Z,1017.61
2018-12-30T09:13:40.784Z,1017.65
2018-12-30T09:14:40.855Z,1017.69
2018-12-30T09:15:40.749Z,1017.80
2018-12-30T09:16:40.752Z,1017.77
2018-12-30T09:17:40.755Z,1017.70
2018-12-30T09:18:40.704Z,1017.76
2018-12-30T09:19:40.701Z,1017.74
2018-12-30T09:20:40.820Z,1017.71
2018-12-30T09:21:40.685Z,1017.78
2018-12-30T09:22:40.673Z,1017.87
2018-12-30T09:23:40.659Z,1017.91
2018-12-30T09:24:40.646Z,1017.83
2018-12-30T09:25:40.655Z,1017.94
2018-12-30T09:26:40.764Z,1017.91
2018-12-30T09:27:40.628Z,1017.94
2018-12-30T09:28:40.600Z,1017.95
2018-12-30T09:29:40.584Z,1017.96
2018-12-30T09:30:40.600Z,1017.96
2018-12-30T09:31:40.570Z,1017.93
2018-12-30T09:32:40.698Z,1017.96
2018-12-30T09:33:40.557Z,1018.05
2018-12-30T09:34:40.536Z,1018.02
2018-12-30T09:35:40.535Z,1018.02
2018-12-30T09:36:40.513Z,1017.95
2018-12-30T09:37:40.506Z,1017.91
2018-12-30T09:38:40.714Z,1017.98
2018-12-30T09:39:40.488Z,1018.06
2018-12-30T09:40:40.467Z,1018.07
2018-12-30T09:41:40.463Z,1018.05
2018-12-30T09:42:40.449Z,1017.98
2018-12-30T09:43:40.515Z,1018.07
2018-12-30T09:44:40.635Z,1018.13
2018-12-30T09:45:40.431Z,1018.00
2018-12-30T09:46:40.405Z,1018.05
2018-12-30T09:47:40.398Z,1018.13
2018-12-30T09:48:40.391Z,1018.09
2018-12-30T09:49:40.375Z,1018.04
2018-12-30T09:50:40.505Z,1018.08
2018-12-30T09:51:40.356Z,1018.14
2018-12-30T09:52:40.337Z,1018.08
2018-12-30T09:53:45.126Z,1018.11
2018-12-30T09:54:41.328Z,1018.12
2018-12-30T09:55:40.315Z,1018.20
2018-12-30T09:56:40.433Z,1018.04
2018-12-30T09:57:40.286Z,1018.09
2018-12-30T09:58:40.273Z,1018.13
2018-12-30T09:59:40.262Z,1018.15
2018-12-30T10:00:40.364Z,1018.12
2018-12-30T10:01:40.260Z,1018.10
2018-12-30T10:02:40.479Z,1018.09
2018-12-30T10:03:40.270Z,1018.18
2018-12-30T10:04:40.214Z,1018.15
2018-12-30T10:05:40.201Z,1018.17
2018-12-30T10:06:40.216Z,1018.12
2018-12-30T10:07:40.191Z,1018.16
2018-12-30T10:08:40.288Z,1018.17
2018-12-30T10:09:40.156Z,1018.20
2018-12-30T10:10:40.149Z,1018.29
2018-12-30T10:11:40.130Z,1018.29
2018-12-30T10:12:40.129Z,1018.29
2018-12-30T10:13:40.131Z,1018.29
2018-12-30T10:14:40.230Z,1018.23
2018-12-30T10:15:41.008Z,1018.32
2018-12-30T10:16:40.101Z,1018.29
2018-12-30T10:17:40.249Z,1018.33
2018-12-30T10:18:40.222Z,1018.28
2018-12-30T10:19:40.102Z,1018.30
2018-12-30T10:20:40.217Z,1018.42
2018-12-30T10:21:40.036Z,1018.26
2018-12-30T10:22:40.015Z,1018.35
2018-12-30T10:23:40.007Z,1018.29
2018-12-30T10:24:40.008Z,1018.24
2018-12-30T10:25:41.045Z,1018.33
2018-12-30T10:26:40.305Z,1018.28
2018-12-30T10:27:40.003Z,1018.24
2018-12-30T10:28:39.998Z,1018.24
2018-12-30T10:29:39.994Z,1018.22
2018-12-30T10:30:39.973Z,1018.27
2018-12-30T10:31:39.917Z,1018.33
2018-12-30T10:32:40.315Z,1018.35
2018-12-30T10:33:39.900Z,1018.32
2018-12-30T10:34:39.880Z,1018.34
2018-12-30T10:35:39.879Z,1018.31
2018-12-30T10:36:39.875Z,1018.36
2018-12-30T10:37:39.861Z,1018.46
2018-12-30T10:38:40.109Z,1018.44
2018-12-30T10:39:39.875Z,1018.49
2018-12-30T10:40:39.841Z,1018.51
2018-12-30T10:41:39.808Z,1018.49
2018-12-30T10:42:39.867Z,1018.50
2018-12-30T10:43:39.794Z,1018.44
2018-12-30T10:44:39.927Z,1018.42
2018-12-30T10:45:39.757Z,1018.47
2018-12-30T10:46:40.146Z,1018.41
2018-12-30T10:47:39.731Z,1018.51
2018-12-30T10:48:39.730Z,1018.43
2018-12-30T10:49:39.807Z,1018.38
2018-12-30T10:50:39.852Z,1018.36
2018-12-30T10:51:39.708Z,1018.33
2018-12-30T10:52:39.710Z,1018.36
2018-12-30T10:53:39.671Z,1018.31
2018-12-30T10:54:39.662Z,1018.37
2018-12-30T10:55:39.744Z,1018.35
2018-12-30T10:56:39.911Z,1018.32
2018-12-30T10:57:39.627Z,1018.29
2018-12-30T10:58:39.625Z,1018.31
2018-12-30T10:59:39.608Z,1018.31
2018-12-30T11:00:39.613Z,1018.24
2018-12-30T11:01:39.581Z,1018.24
2018-12-30T11:02:39.722Z,1018.24
2018-12-30T11:03:39.555Z,1018.33
2018-12-30T11:04:39.541Z,1018.36
2018-12-30T11:06:00.564Z,1018.32
2018-12-30T11:06:39.601Z,1018.39
2018-12-30T11:07:39.520Z,1018.39
2018-12-30T11:08:40.321Z,1018.26
2018-12-30T11:09:39.485Z,1018.38
2018-12-30T11:10:39.478Z,1018.38
2018-12-30T11:11:39.479Z,1018.23
2018-12-30T11:12:40.024Z,1018.23
2018-12-30T11:13:39.457Z,1018.21
2018-12-30T11:14:39.715Z,1018.27
2018-12-30T11:15:39.511Z,1018.30
2018-12-30T11:16:39.416Z,1018.27
2018-12-30T11:17:39.411Z,1018.29
2018-12-30T11:18:39.463Z,1018.23
2018-12-30T11:19:39.397Z,1018.28
2018-12-30T11:20:39.533Z,1018.35
2018-12-30T11:21:39.378Z,1018.35
2018-12-30T11:22:39.350Z,1018.35
2018-12-30T11:23:39.453Z,1018.35
2018-12-30T11:24:39.339Z,1018.29
2018-12-30T11:25:39.340Z,1018.45
2018-12-30T11:26:39.428Z,1018.41
2018-12-30T11:27:39.295Z,1018.38
2018-12-30T11:28:39.296Z,1018.32
2018-12-30T11:29:39.270Z,1018.42
2018-12-30T11:30:39.294Z,1018.41
2018-12-30T11:31:39.249Z,1018.36
2018-12-30T11:32:39.413Z,1018.38
2018-12-30T11:33:39.229Z,1018.37
2018-12-30T11:34:39.237Z,1018.40
2018-12-30T11:35:39.222Z,1018.42
2018-12-30T11:36:39.206Z,1018.41
2018-12-30T11:37:39.186Z,1018.41
2018-12-30T11:38:39.332Z,1018.37
2018-12-30T11:39:39.160Z,1018.37
2018-12-30T11:40:39.162Z,1018.28
2018-12-30T11:41:39.164Z,1018.30
2018-12-30T11:42:39.165Z,1018.29
2018-12-30T11:43:39.135Z,1018.30
2018-12-30T11:44:39.234Z,1018.15
2018-12-30T11:45:39.100Z,1018.27
2018-12-30T11:46:39.098Z,1018.22
2018-12-30T11:47:39.092Z,1018.22
2018-12-30T11:48:39.062Z,1018.27
2018-12-30T11:49:39.065Z,1018.21
2018-12-30T11:50:39.157Z,1018.23
2018-12-30T11:51:39.042Z,1018.22
2018-12-30T11:52:39.037Z,1018.18
2018-12-30T11:53:39.015Z,1018.23
2018-12-30T11:54:39.013Z,1018.25
2018-12-30T11:55:39.028Z,1018.21
2018-12-30T11:56:39.195Z,1018.22
2018-12-30T11:57:38.967Z,1018.16
2018-12-30T11:58:38.963Z,1018.21
2018-12-30T11:59:38.955Z,1018.22
2018-12-30T12:00:38.933Z,1018.29
2018-12-30T12:01:38.944Z,1018.29
2018-12-30T12:02:39.009Z,1018.29
2018-12-30T12:03:38.903Z,1018.34
2018-12-30T12:04:38.904Z,1018.39
2018-12-30T12:05:38.873Z,1018.42